Time;durP1;ratioP1;P1;durP2;ratioP2;P2;SDS_P1;SDS_P2;PMS_P1;PMS_P2;Temp;Humidity;BMP_temperature;BMP_pressure;BME280_temperature;BME280_humidity;BME280_pressure;Samples;Min_cycle;Max_cycle;Signal;HPM_P1;HPM_P2
2020/12/17 00:00:38;;;;;;;14.38;7.35;;;11.20;68.50;;;;;;6248369;28;20037;-73
2020/12/17 00:03:38;;;;;;;18.40;7.25;;;11.20;68.60;;;;;;6255696;28;20471;-73
2020/12/17 00:06:39;;;;;;;14.70;7.13;;;11.20;68.70;;;;;;6254214;28;20029;-73
2020/12/17 00:09:40;;;;;;;14.57;6.93;;;11.10;68.70;;;;;;6257034;28;20550;-73
2020/12/17 00:12:45;;;;;;;13.40;7.57;;;11.20;68.80;;;;;;6254875;28;20030;-73
2020/12/17 00:15:46;;;;;;;14.73;6.80;;;11.10;68.70;;;;;;6257922;28;20029;-72
2020/12/17 00:18:47;;;;;;;15.90;7.57;;;11.10;68.70;;;;;;6258484;28;20504;-73
2020/12/17 00:21:48;;;;;;;13.10;7.05;;;11.10;68.70;;;;;;6263505;28;20038;-73
2020/12/17 00:24:49;;;;;;;20.73;7.35;;;11.10;68.80;;;;;;6262366;28;20041;-72
2020/12/17 00:27:50;;;;;;;12.38;6.10;;;11.10;68.70;;;;;;6237319;28;20088;-72
2020/12/17 00:30:51;;;;;;;13.18;6.50;;;11.00;68.80;;;;;;6223945;28;20471;-72
2020/12/17 00:33:51;;;;;;;17.17;7.78;;;11.00;68.90;;;;;;6250861;28;20078;-73
2020/12/17 00:36:53;;;;;;;16.48;7.03;;;10.90;69.00;;;;;;6264567;28;20470;-73
2020/12/17 00:39:54;;;;;;;15.15;7.13;;;10.90;69.10;;;;;;6266098;28;20040;-72
2020/12/17 00:42:55;;;;;;;14.40;6.50;;;10.90;69.20;;;;;;6259526;28;20041;-73
2020/12/17 00:45:56;;;;;;;13.43;6.95;;;10.90;69.20;;;;;;6254899;28;20481;-73
2020/12/17 00:48:57;;;;;;;11.45;6.50;;;10.90;69.20;;;;;;6261189;28;20354;-73
2020/12/17 00:52:00;;;;;;;16.38;7.75;;;10.80;69.20;;;;;;6262876;28;20480;-73
2020/12/17 00:55:01;;;;;;;23.55;8.55;;;10.80;69.30;;;;;;6261678;28;20174;-73
2020/12/17 00:58:02;;;;;;;16.02;6.22;;;10.80;69.30;;;;;;6247273;28;20066;-73
2020/12/17 01:01:09;;;;;;;17.38;7.57;;;10.80;69.30;;;;;;6258757;28;20045;-73
2020/12/17 01:04:10;;;;;;;11.85;5.65;;;10.70;69.40;;;;;;6259205;28;20052;-73
2020/12/17 01:07:11;;;;;;;16.40;6.88;;;10.70;69.40;;;;;;6252478;28;20037;-73
2020/12/17 01:10:12;;;;;;;12.73;6.53;;;10.70;69.50;;;;;;6261623;28;20033;-73
2020/12/17 01:13:12;;;;;;;15.35;7.10;;;10.70;69.60;;;;;;6246734;28;20064;-73
2020/12/17 01:16:13;;;;;;;11.95;5.80;;;10.70;69.50;;;;;;6250632;28;20033;-72
2020/12/17 01:19:14;;;;;;;12.73;5.88;;;10.80;69.40;;;;;;6259385;28;20466;-73
2020/12/17 01:22:15;;;;;;;16.23;7.13;;;10.80;69.20;;;;;;6260277;28;20051;-73
2020/12/17 01:25:16;;;;;;;15.25;6.88;;;10.70;69.20;;;;;;6245384;28;20533;-73
2020/12/17 01:28:17;;;;;;;11.07;6.03;;;10.70;69.20;;;;;;6266258;28;20040;-73
2020/12/17 01:31:17;;;;;;;19.23;7.20;;;10.70;69.20;;;;;;6261910;28;20065;-73
2020/12/17 01:34:18;;;;;;;12.07;6.25;;;10.70;69.10;;;;;;6260241;28;20065;-72
2020/12/17 01:37:20;;;;;;;22.25;6.63;;;10.70;69.10;;;;;;6260739;28;20113;-73
2020/12/17 01:40:21;;;;;;;15.38;7.07;;;10.70;69.10;;;;;;6258956;28;20033;-73
2020/12/17 01:43:23;;;;;;;14.02;6.57;;;10.70;69.00;;;;;;6259572;28;20033;-73
2020/12/17 01:46:25;;;;;;;16.40;7.40;;;10.60;69.00;;;;;;6258470;28;20044;-73
2020/12/17 01:49:26;;;;;;;15.98;7.68;;;10.60;69.00;;;;;;6261129;28;20041;-73
2020/12/17 01:52:27;;;;;;;15.45;6.43;;;10.70;68.90;;;;;;6263952;28;20339;-73
2020/12/17 01:55:31;;;;;;;13.73;6.88;;;10.60;68.90;;;;;;6245807;28;20039;-73
2020/12/17 01:58:40;;;;;;;15.50;6.50;;;10.60;68.90;;;;;;6244784;28;20451;-73
2020/12/17 02:01:45;;;;;;;19.30;6.05;;;10.60;68.90;;;;;;6260850;28;20437;-73
2020/12/17 02:04:47;;;;;;;13.45;7.20;;;10.60;69.00;;;;;;6261740;28;20037;-73
2020/12/17 02:07:48;;;;;;;25.25;7.43;;;10.60;68.90;;;;;;6262842;28;20063;-73
2020/12/17 02:10:48;;;;;;;19.88;6.80;;;10.60;68.90;;;;;;6261917;28;20097;-73
2020/12/17 02:13:49;;;;;;;10.07;5.15;;;10.50;68.80;;;;;;6259061;28;20041;-72
2020/12/17 02:16:52;;;;;;;15.95;6.50;;;10.50;68.80;;;;;;6263237;28;20036;-72
2020/12/17 02:19:52;;;;;;;12.10;5.38;;;10.50;68.80;;;;;;6260935;28;20439;-73
2020/12/17 02:22:53;;;;;;;12.02;6.40;;;10.50;68.80;;;;;;6259809;28;20036;-72
2020/12/17 02:25:54;;;;;;;16.58;6.47;;;10.50;68.90;;;;;;6259858;28;20539;-73
2020/12/17 02:28:56;;;;;;;13.48;6.32;;;10.50;68.90;;;;;;6248038;28;20132;-72
2020/12/17 02:31:56;;;;;;;13.00;6.60;;;10.40;68.90;;;;;;6259901;28;20033;-71
2020/12/17 02:34:58;;;;;;;15.30;6.70;;;10.50;68.80;;;;;;6244832;28;20470;-73
2020/12/17 02:37:59;;;;;;;14.50;6.75;;;10.50;68.70;;;;;;6247182;28;20043;-73
2020/12/17 02:41:01;;;;;;;12.82;6.32;;;10.40;68.60;;;;;;6262139;28;20065;-73
2020/12/17 02:44:01;;;;;;;14.38;5.50;;;10.40;68.60;;;;;;6263092;28;20138;-72
2020/12/17 02:47:03;;;;;;;9.18;4.80;;;10.40;68.70;;;;;;6260398;28;20030;-72
2020/12/17 02:50:05;;;;;;;16.77;5.65;;;10.50;68.70;;;;;;6257422;28;20466;-71
2020/12/17 02:53:08;;;;;;;18.90;6.53;;;10.40;68.40;;;;;;6261251;28;20025;-74
2020/12/17 02:56:12;;;;;;;13.07;6.15;;;10.40;68.20;;;;;;6248988;28;20029;-71
2020/12/17 02:59:13;;;;;;;14.60;6.20;;;10.40;68.20;;;;;;6256446;28;20041;-72
2020/12/17 03:02:14;;;;;;;9.45;4.57;;;10.40;68.10;;;;;;6259979;28;20127;-72
2020/12/17 03:05:15;;;;;;;8.55;3.97;;;10.40;69.00;;;;;;6244690;28;20681;-72
2020/12/17 03:08:17;;;;;;;9.65;5.15;;;10.30;68.00;;;;;;6263947;28;20033;-72
2020/12/17 03:11:18;;;;;;;10.70;5.85;;;10.30;67.90;;;;;;6257326;28;20126;-72
2020/12/17 03:14:19;;;;;;;11.55;5.47;;;10.30;67.90;;;;;;6259564;28;20400;-73
2020/12/17 03:17:21;;;;;;;12.38;5.85;;;10.30;67.80;;;;;;6257428;28;20029;-72
2020/12/17 03:20:23;;;;;;;11.13;4.68;;;10.30;67.90;;;;;;6257216;28;20504;-71
2020/12/17 03:23:24;;;;;;;11.30;4.70;;;10.30;67.70;;;;;;6258650;28;20037;-72
2020/12/17 03:26:25;;;;;;;9.93;4.65;;;10.30;67.40;;;;;;6257888;28;20040;-73
2020/12/17 03:29:26;;;;;;;11.10;5.53;;;10.20;67.20;;;;;;6259100;28;20029;-72
2020/12/17 03:33:13;;;;;;;10.68;6.28;;;10.20;67.30;;;;;;6252318;28;20458;-72
2020/12/17 03:36:14;;;;;;;10.63;4.82;;;10.20;67.30;;;;;;6240541;28;20025;-74
2020/12/17 03:39:19;;;;;;;13.40;5.47;;;10.20;67.30;;;;;;6253651;28;20447;-72
2020/12/17 03:42:20;;;;;;;11.77;5.30;;;10.10;67.20;;;;;;6252550;28;20044;-72
2020/12/17 03:45:22;;;;;;;13.43;5.38;;;10.10;67.20;;;;;;6258606;28;20072;-72
2020/12/17 03:48:24;;;;;;;13.45;5.30;;;10.10;67.20;;;;;;6257444;28;20414;-72
2020/12/17 03:51:25;;;;;;;13.05;5.55;;;10.10;67.20;;;;;;6256077;28;20045;-73
2020/12/17 03:54:26;;;;;;;17.02;5.28;;;10.10;67.20;;;;;;6256915;28;20466;-72
2020/12/17 03:57:26;;;;;;;11.77;4.80;;;10.10;67.10;;;;;;6262944;28;20033;-72
2020/12/17 04:00:28;;;;;;;11.13;4.93;;;10.10;67.10;;;;;;6263159;28;20409;-72
2020/12/17 04:03:29;;;;;;;11.32;4.55;;;10.00;67.10;;;;;;6259274;28;20094;-72
2020/12/17 04:06:30;;;;;;;10.73;5.45;;;10.00;67.00;;;;;;6260049;28;20029;-72
2020/12/17 04:09:31;;;;;;;9.10;4.13;;;10.00;67.00;;;;;;6258753;28;20033;-72
2020/12/17 04:12:32;;;;;;;12.20;5.05;;;9.90;67.00;;;;;;6262315;28;20033;-72
2020/12/17 04:15:33;;;;;;;12.73;5.75;;;9.90;67.00;;;;;;6258473;28;20040;-72
2020/12/17 04:18:34;;;;;;;9.95;4.93;;;9.90;67.10;;;;;;6261949;28;20057;-72
2020/12/17 04:21:35;;;;;;;13.00;5.10;;;9.90;67.10;;;;;;6259888;28;20049;-73
2020/12/17 04:24:36;;;;;;;21.13;5.15;;;9.90;67.10;;;;;;6264663;28;20470;-73
2020/12/17 04:27:37;;;;;;;11.05;5.43;;;9.90;67.00;;;;;;6262446;28;20037;-72
2020/12/17 04:30:38;;;;;;;19.50;4.53;;;9.90;67.00;;;;;;6261365;28;20030;-72
2020/12/17 04:33:39;;;;;;;11.02;4.90;;;9.90;66.80;;;;;;6263634;28;20033;-72
2020/12/17 04:36:41;;;;;;;13.80;4.97;;;9.90;66.80;;;;;;6249412;28;20383;-72
2020/12/17 04:39:41;;;;;;;10.73;5.43;;;9.90;66.80;;;;;;6260659;28;20128;-74
2020/12/17 04:42:47;;;;;;;9.95;4.35;;;9.90;66.80;;;;;;6260981;28;20064;-72
2020/12/17 04:45:48;;;;;;;8.70;4.30;;;9.90;66.70;;;;;;6262096;28;20097;-73
2020/12/17 04:48:52;;;;;;;10.13;4.65;;;9.90;66.60;;;;;;6261760;28;20526;-73
2020/12/17 04:51:56;;;;;;;10.55;4.57;;;9.90;66.30;;;;;;6264513;28;20048;-72
2020/12/17 04:54:58;;;;;;;9.55;4.82;;;9.90;66.30;;;;;;6248386;28;20029;-73
2020/12/17 04:57:59;;;;;;;12.27;4.88;;;9.90;66.30;;;;;;6256899;28;20037;-72
2020/12/17 05:01:02;;;;;;;8.13;4.32;;;9.90;66.30;;;;;;6261592;28;20386;-72
2020/12/17 05:04:03;;;;;;;13.80;4.25;;;9.90;66.40;;;;;;6259771;28;20458;-73
2020/12/17 05:07:06;;;;;;;11.07;5.05;;;9.90;66.20;;;;;;6239379;28;20044;-73
2020/12/17 05:10:08;;;;;;;8.15;4.00;;;9.90;66.10;;;;;;6248098;28;20092;-73
2020/12/17 05:13:09;;;;;;;8.50;4.47;;;9.90;66.00;;;;;;6262215;28;20143;-73
2020/12/17 05:16:10;;;;;;;7.35;4.57;;;9.80;66.00;;;;;;6261153;28;20034;-73
2020/12/17 05:19:12;;;;;;;8.82;3.50;;;9.80;66.10;;;;;;6257788;28;20034;-73
2020/12/17 05:22:14;;;;;;;9.02;4.55;;;9.70;66.00;;;;;;6260485;28;20074;-73
2020/12/17 05:25:16;;;;;;;14.15;4.28;;;9.60;66.10;;;;;;6261898;28;20040;-73
2020/12/17 05:28:17;;;;;;;12.13;4.55;;;9.60;66.30;;;;;;6264768;28;20030;-73
2020/12/17 05:31:21;;;;;;;9.40;4.85;;;9.50;66.40;;;;;;6262014;28;20025;-73
2020/12/17 05:34:22;;;;;;;8.88;4.20;;;9.50;66.50;;;;;;6247841;28;20032;-73
2020/12/17 05:37:23;;;;;;;9.98;4.03;;;9.40;66.60;;;;;;6257060;28;20033;-73
2020/12/17 05:40:24;;;;;;;7.93;3.78;;;9.40;66.60;;;;;;6259207;28;20074;-73
2020/12/17 05:43:29;;;;;;;7.45;4.13;;;9.40;66.70;;;;;;6260830;28;20045;-73
2020/12/17 05:46:37;;;;;;;8.70;4.18;;;9.40;66.80;;;;;;6262997;28;20057;-73
2020/12/17 05:49:39;;;;;;;12.30;4.55;;;9.40;66.80;;;;;;6264797;28;20056;-73
2020/12/17 05:52:40;;;;;;;10.70;4.28;;;9.40;66.70;;;;;;6261654;28;20488;-73
2020/12/17 05:55:41;;;;;;;7.03;3.88;;;9.40;66.80;;;;;;6255151;28;20045;-73
2020/12/17 05:58:44;;;;;;;7.65;4.53;;;9.40;66.80;;;;;;6262321;28;20030;-73
2020/12/17 06:01:48;;;;;;;10.95;4.93;;;9.40;66.60;;;;;;6257536;28;20041;-73
2020/12/17 06:05:12;;;;;;;9.20;3.65;;;9.40;66.60;;;;;;6261808;28;20048;-72
2020/12/17 06:08:20;;;;;;;7.85;3.72;;;9.40;66.50;;;;;;6260252;28;20040;-72
2020/12/17 06:11:23;;;;;;;10.38;5.28;;;9.40;66.40;;;;;;6261347;28;20355;-73
2020/12/17 06:14:25;;;;;;;10.15;4.68;;;9.40;66.30;;;;;;6260541;28;20033;-72
2020/12/17 06:17:31;;;;;;;9.73;4.32;;;9.40;66.20;;;;;;6257690;28;20030;-73
2020/12/17 06:20:33;;;;;;;12.65;4.68;;;9.40;66.00;;;;;;6259425;28;20033;-72
2020/12/17 06:23:33;;;;;;;15.20;4.78;;;9.40;66.00;;;;;;6258129;28;20171;-73
2020/12/17 06:26:40;;;;;;;9.02;4.68;;;9.40;65.90;;;;;;6257412;28;20367;-73
2020/12/17 06:29:49;;;;;;;9.80;4.53;;;9.40;66.00;;;;;;6249433;28;20030;-73
2020/12/17 06:32:54;;;;;;;9.02;4.30;;;9.40;66.00;;;;;;6267444;28;20041;-73
2020/12/17 06:35:59;;;;;;;10.27;4.47;;;9.40;65.80;;;;;;6244704;28;20371;-73
2020/12/17 06:39:05;;;;;;;10.65;3.92;;;9.40;65.70;;;;;;6255102;28;20041;-73
2020/12/17 06:42:31;;;;;;;11.32;4.68;;;9.40;65.70;;;;;;6260388;28;20033;-73
2020/12/17 06:45:34;;;;;;;13.13;4.63;;;9.40;65.70;;;;;;6254821;28;20045;-73
2020/12/17 06:48:40;;;;;;;7.60;3.90;;;9.40;65.60;;;;;;6257140;28;20054;-73
2020/12/17 06:51:42;;;;;;;13.50;4.70;;;9.40;65.50;;;;;;6258357;28;20117;-72
2020/12/17 06:54:43;;;;;;;12.70;4.13;;;9.40;65.50;;;;;;6260480;28;20029;-73
2020/12/17 06:57:44;;;;;;;12.98;5.05;;;9.40;65.60;;;;;;6254982;28;20090;-73
2020/12/17 07:00:47;;;;;;;11.85;4.57;;;9.40;65.50;;;;;;6258222;28;20037;-73
2020/12/17 07:03:49;;;;;;;9.48;4.55;;;9.40;65.40;;;;;;6259211;28;20057;-73
2020/12/17 07:07:23;;;;;;;11.23;4.82;;;9.40;65.40;;;;;;6257918;28;20041;-73
2020/12/17 07:10:29;;;;;;;8.75;4.03;;;9.40;65.40;;;;;;6269786;28;20030;-73
2020/12/17 07:13:40;;;;;;;12.02;4.40;;;9.40;65.20;;;;;;6245978;28;20099;-73
2020/12/17 07:16:57;;;;;;;18.88;4.63;;;9.40;65.00;;;;;;6252155;28;20094;-73
2020/12/17 07:19:58;;;;;;;11.70;4.60;;;9.50;65.00;;;;;;6240240;28;20041;-73
2020/12/17 07:22:59;;;;;;;12.75;4.63;;;9.50;65.00;;;;;;6258492;28;20041;-73
2020/12/17 07:26:14;;;;;;;9.32;5.00;;;9.60;64.90;;;;;;6255904;28;20051;-73
2020/12/17 07:29:15;;;;;;;18.23;4.78;;;9.60;64.70;;;;;;6256940;28;20370;-73
2020/12/17 07:32:43;;;;;;;9.98;4.05;;;9.70;64.50;;;;;;6253466;28;20117;-72
2020/12/17 07:36:40;;;;;;;10.15;4.18;;;9.70;64.20;;;;;;6231276;28;20040;-73
2020/12/17 07:39:41;;;;;;;8.68;4.05;;;9.80;63.90;;;;;;6253453;28;20429;-72
2020/12/17 07:43:04;;;;;;;12.40;5.32;;;9.90;63.70;;;;;;6253926;28;20087;-73
2020/12/17 07:46:07;;;;;;;8.45;3.97;;;9.90;63.60;;;;;;6223496;28;20038;-73
2020/12/17 07:49:26;;;;;;;8.73;4.07;;;10.00;63.40;;;;;;6216026;28;20033;-73
2020/12/17 07:52:30;;;;;;;9.75;4.13;;;10.00;63.10;;;;;;6246199;28;20371;-75
2020/12/17 07:55:32;;;;;;;14.52;4.40;;;10.00;62.80;;;;;;6220034;28;20116;-73
2020/12/17 07:58:34;;;;;;;8.30;4.03;;;10.10;62.60;;;;;;6230534;28;20037;-72
2020/12/17 08:01:35;;;;;;;11.02;5.25;;;10.10;62.60;;;;;;6223245;28;20529;-73
2020/12/17 08:04:36;;;;;;;10.95;4.22;;;10.20;62.60;;;;;;6235192;28;20072;-73
2020/12/17 08:07:38;;;;;;;17.08;5.60;;;10.30;62.40;;;;;;6231901;28;20030;-73
2020/12/17 08:10:40;;;;;;;10.63;4.93;;;10.30;62.10;;;;;;6234086;28;20501;-74
2020/12/17 08:13:41;;;;;;;7.75;4.38;;;10.30;61.80;;;;;;6227891;28;20088;-72
2020/12/17 08:16:42;;;;;;;8.20;3.83;;;10.40;61.70;;;;;;6236588;28;20117;-73
2020/12/17 08:19:42;;;;;;;15.73;4.80;;;10.40;62.40;;;;;;6233481;28;20041;-73
2020/12/17 08:22:45;;;;;;;8.07;4.18;;;10.50;61.50;;;;;;6231956;28;20083;-73
2020/12/17 08:25:46;;;;;;;11.13;4.00;;;10.50;61.20;;;;;;6231847;28;20038;-73
2020/12/17 08:28:49;;;;;;;10.02;4.07;;;10.60;60.70;;;;;;6234553;28;20045;-72
2020/12/17 08:31:51;;;;;;;9.23;4.13;;;10.60;60.50;;;;;;6242779;28;20042;-73
2020/12/17 08:34:53;;;;;;;11.88;3.63;;;10.60;60.50;;;;;;6221867;28;20093;-73
2020/12/17 08:37:56;;;;;;;22.10;4.25;;;10.70;60.50;;;;;;6239151;28;20120;-74
2020/12/17 08:40:57;;;;;;;11.32;4.47;;;10.60;60.00;;;;;;6234467;28;20041;-73
2020/12/17 08:44:03;;;;;;;10.63;4.78;;;10.70;60.20;;;;;;6256957;28;20037;-73
2020/12/17 08:47:07;;;;;;;11.57;4.90;;;10.60;60.30;;;;;;6259627;28;20029;-74
2020/12/17 08:50:10;;;;;;;9.27;4.03;;;10.70;60.30;;;;;;6252923;28;20029;-73
2020/12/17 08:53:22;;;;;;;12.95;4.30;;;10.70;60.20;;;;;;6255349;28;20036;-74
2020/12/17 08:56:23;;;;;;;10.50;5.13;;;10.80;60.30;;;;;;6231533;28;20025;-74
2020/12/17 08:59:24;;;;;;;10.23;4.63;;;10.80;60.10;;;;;;6260267;28;20366;-73
2020/12/17 09:02:29;;;;;;;11.85;4.53;;;10.90;60.00;;;;;;6258648;28;20086;-73
2020/12/17 09:05:30;;;;;;;12.93;5.18;;;10.90;59.70;;;;;;6261474;28;20037;-72
2020/12/17 09:08:32;;;;;;;18.27;4.38;;;10.90;59.50;;;;;;6254412;28;20504;-73
2020/12/17 09:11:36;;;;;;;8.13;3.72;;;11.00;59.40;;;;;;6238292;28;20025;-73
2020/12/17 09:14:38;;;;;;;11.05;4.45;;;11.00;59.30;;;;;;6256802;28;20029;-73
2020/12/17 09:17:40;;;;;;;12.25;3.63;;;11.00;59.20;;;;;;6247147;28;20044;-73
2020/12/17 09:20:41;;;;;;;13.50;4.22;;;11.00;59.00;;;;;;6260837;28;20370;-73
2020/12/17 09:23:52;;;;;;;8.55;3.92;;;11.00;59.00;;;;;;6246043;28;20025;-72
2020/12/17 09:26:53;;;;;;;12.68;4.82;;;11.10;59.00;;;;;;6246548;28;20037;-72
2020/12/17 09:30:15;;;;;;;9.00;4.18;;;11.20;59.10;;;;;;6257249;28;20033;-72
2020/12/17 09:33:17;;;;;;;7.35;3.35;;;11.20;58.90;;;;;;6257094;28;20049;-74
2020/12/17 09:36:19;;;;;;;9.25;4.25;;;11.30;58.70;;;;;;6262460;28;20037;-72
2020/12/17 09:39:20;;;;;;;20.02;5.13;;;11.40;58.70;;;;;;6259695;28;20505;-73
2020/12/17 09:42:23;;;;;;;8.82;3.88;;;11.40;58.50;;;;;;6260161;28;20071;-73
2020/12/17 09:45:24;;;;;;;11.90;4.68;;;11.60;58.30;;;;;;6261395;28;20040;-73
2020/12/17 09:48:30;;;;;;;12.55;4.20;;;11.60;58.10;;;;;;6258982;28;20053;-73
2020/12/17 09:51:31;;;;;;;9.65;3.92;;;11.70;57.80;;;;;;6261206;28;20462;-73
2020/12/17 09:54:35;;;;;;;7.38;3.42;;;11.70;57.30;;;;;;6246438;28;20036;-72
2020/12/17 09:57:38;;;;;;;7.88;4.40;;;11.70;57.00;;;;;;6261196;28;20102;-73
2020/12/17 10:00:39;;;;;;;25.60;9.02;;;11.80;56.80;;;;;;6257043;28;20029;-73
2020/12/17 10:03:41;;;;;;;10.07;4.75;;;11.90;56.90;;;;;;6254545;28;20316;-73
2020/12/17 10:06:44;;;;;;;13.15;4.93;;;11.90;56.40;;;;;;6260129;28;20454;-73
2020/12/17 10:09:45;;;;;;;14.55;5.15;;;12.00;56.50;;;;;;6261108;28;20045;-73
2020/12/17 10:12:48;;;;;;;9.82;3.92;;;12.10;56.10;;;;;;6259048;28;20037;-73
2020/12/17 10:15:49;;;;;;;33.85;12.25;;;12.10;55.50;;;;;;6260018;28;20032;-73
2020/12/17 10:18:49;;;;;;;14.38;6.82;;;12.10;55.30;;;;;;6259524;28;20029;-73
2020/12/17 10:21:50;;;;;;;16.90;6.40;;;12.10;55.10;;;;;;6262626;28;20041;-73
2020/12/17 10:24:51;;;;;;;12.63;5.60;;;12.10;54.90;;;;;;6247202;28;20091;-73
2020/12/17 10:27:55;;;;;;;11.88;5.82;;;12.10;54.80;;;;;;6245705;28;20037;-73
2020/12/17 10:30:56;;;;;;;17.85;7.20;;;12.20;55.00;;;;;;6256111;28;20042;-72
2020/12/17 10:33:56;;;;;;;12.07;3.78;;;12.20;54.70;;;;;;6264117;28;20355;-73
2020/12/17 10:36:57;;;;;;;16.92;7.53;;;12.10;54.50;;;;;;6256918;28;20110;-72
2020/12/17 10:39:58;;;;;;;20.83;8.40;;;12.10;54.50;;;;;;6260417;28;20154;-74
2020/12/17 10:42:59;;;;;;;12.98;4.57;;;12.10;54.80;;;;;;6241880;28;20087;-73
2020/12/17 10:46:03;;;;;;;16.15;4.20;;;12.00;54.90;;;;;;6252704;28;20062;-73
2020/12/17 10:49:05;;;;;;;8.68;4.65;;;12.00;54.90;;;;;;6233153;28;20041;-73
2020/12/17 10:52:07;;;;;;;11.20;3.92;;;12.00;55.10;;;;;;6257785;28;20060;-73
2020/12/17 10:55:08;;;;;;;18.00;6.72;;;12.00;55.10;;;;;;6257271;28;20037;-74
2020/12/17 10:58:09;;;;;;;13.57;5.30;;;12.10;55.20;;;;;;6253034;28;20426;-73
2020/12/17 11:01:10;;;;;;;13.90;5.57;;;12.10;55.10;;;;;;6242680;28;20053;-74
2020/12/17 11:04:12;;;;;;;13.07;5.95;;;12.20;55.10;;;;;;6244807;28;20022;-72
2020/12/17 11:07:12;;;;;;;8.15;4.05;;;12.30;54.90;;;;;;6254432;28;20036;-73
2020/12/17 11:10:13;;;;;;;18.67;5.95;;;12.40;54.70;;;;;;6255518;28;20029;-73
2020/12/17 11:13:15;;;;;;;27.27;8.13;;;12.40;54.40;;;;;;6241566;28;20109;-73
2020/12/17 11:16:17;;;;;;;14.23;5.85;;;12.50;54.30;;;;;;6260569;28;20052;-74
2020/12/17 11:19:19;;;;;;;17.83;8.60;;;12.50;54.10;;;;;;6258549;28;20373;-73
2020/12/17 11:22:19;;;;;;;10.70;4.85;;;12.60;54.00;;;;;;6251161;28;20458;-73
2020/12/17 11:25:20;;;;;;;12.07;5.63;;;13.00;53.20;;;;;;6251139;28;20041;-73
2020/12/17 11:28:21;;;;;;;20.27;7.72;;;13.30;52.50;;;;;;6256884;28;20505;-72
2020/12/17 11:31:23;;;;;;;38.22;15.07;;;13.60;51.90;;;;;;6258703;28;20049;-75
2020/12/17 11:34:24;;;;;;;42.97;14.23;;;13.60;51.90;;;;;;6239316;28;20026;-73
2020/12/17 11:37:26;;;;;;;30.13;10.25;;;13.70;52.00;;;;;;6257235;28;20053;-73
2020/12/17 11:40:27;;;;;;;45.63;15.18;;;13.80;51.90;;;;;;6251710;28;20112;-74
2020/12/17 11:43:28;;;;;;;46.22;15.02;;;13.90;51.50;;;;;;6254326;28;20324;-74
2020/12/17 11:46:29;;;;;;;26.15;12.00;;;14.00;51.60;;;;;;6253358;28;20041;-74
2020/12/17 11:49:31;;;;;;;20.67;9.35;;;14.10;51.40;;;;;;6258216;28;20603;-73
2020/12/17 11:52:32;;;;;;;17.58;6.72;;;14.20;51.00;;;;;;6256411;28;20104;-72
2020/12/17 11:55:34;;;;;;;9.15;4.68;;;14.20;50.70;;;;;;6254231;28;20093;-74
2020/12/17 11:58:35;;;;;;;18.73;5.93;;;14.20;50.70;;;;;;6235267;28;20049;-73
2020/12/17 12:01:36;;;;;;;22.42;8.68;;;14.30;50.70;;;;;;6256925;28;20160;-74
2020/12/17 12:04:38;;;;;;;17.05;7.75;;;14.40;50.60;;;;;;6260829;28;20381;-73
2020/12/17 12:07:38;;;;;;;25.08;9.80;;;14.40;50.30;;;;;;6256162;28;20036;-73
2020/12/17 12:10:39;;;;;;;26.17;8.18;;;14.50;50.30;;;;;;6255066;28;20045;-73
2020/12/17 12:13:40;;;;;;;17.98;6.75;;;14.60;50.30;;;;;;6251886;28;20037;-74
2020/12/17 12:16:41;;;;;;;10.75;4.38;;;14.70;50.30;;;;;;6259842;28;20131;-73
2020/12/17 12:19:42;;;;;;;5.03;3.20;;;14.90;50.30;;;;;;6258455;28;20425;-73
2020/12/17 12:22:44;;;;;;;19.33;5.45;;;14.90;50.10;;;;;;6238541;28;20032;-72
2020/12/17 12:25:46;;;;;;;16.08;6.25;;;15.00;50.00;;;;;;6258502;28;20047;-73
2020/12/17 12:28:46;;;;;;;19.45;7.60;;;15.00;49.50;;;;;;6260877;28;20033;-73
2020/12/17 12:31:51;;;;;;;11.35;4.65;;;14.90;49.10;;;;;;6249419;28;20037;-73
2020/12/17 12:34:52;;;;;;;10.20;4.72;;;14.70;48.80;;;;;;6262635;28;20123;-73
2020/12/17 12:37:53;;;;;;;22.83;5.55;;;14.60;49.00;;;;;;6260766;28;20056;-73
2020/12/17 12:40:54;;;;;;;11.60;5.38;;;14.40;49.80;;;;;;6259724;28;20045;-73
2020/12/17 12:43:55;;;;;;;11.07;4.68;;;14.40;49.50;;;;;;6256218;28;20076;-73
2020/12/17 12:46:56;;;;;;;12.73;4.47;;;14.40;49.80;;;;;;6266446;28;20041;-73
2020/12/17 12:49:58;;;;;;;16.38;5.07;;;14.40;50.00;;;;;;6261804;28;20064;-73
2020/12/17 12:52:58;;;;;;;13.65;5.63;;;14.50;50.30;;;;;;6256607;28;20342;-73
2020/12/17 12:55:59;;;;;;;11.20;5.53;;;14.40;49.80;;;;;;6259303;28;20033;-73
2020/12/17 12:59:00;;;;;;;10.00;4.22;;;14.50;49.80;;;;;;6260576;28;20386;-72
2020/12/17 13:02:01;;;;;;;12.52;6.07;;;14.50;49.80;;;;;;6258782;28;20064;-72
2020/12/17 13:05:04;;;;;;;17.08;7.15;;;14.50;49.20;;;;;;6263402;28;20038;-73
2020/12/17 13:08:05;;;;;;;21.10;8.27;;;14.50;49.20;;;;;;6255565;28;20060;-74
2020/12/17 13:11:13;;;;;;;15.00;5.50;;;14.50;49.50;;;;;;6233575;28;20030;-73
2020/12/17 13:14:14;;;;;;;12.13;4.93;;;14.60;49.70;;;;;;6248986;28;20466;-73
2020/12/17 13:17:14;;;;;;;12.65;3.60;;;14.70;49.30;;;;;;6258780;28;20077;-73
2020/12/17 13:20:15;;;;;;;14.93;3.33;;;14.70;49.20;;;;;;6253001;28;20068;-73
2020/12/17 13:23:16;;;;;;;10.63;3.80;;;14.70;49.10;;;;;;6234985;28;20460;-73
2020/12/17 13:26:19;;;;;;;13.32;5.45;;;14.70;49.10;;;;;;6262199;28;20071;-73
2020/12/17 13:29:20;;;;;;;13.20;6.13;;;14.70;49.10;;;;;;6261911;28;20041;-73
2020/12/17 13:32:21;;;;;;;6.80;3.67;;;14.70;49.20;;;;;;6257731;28;20030;-73
2020/12/17 13:35:22;;;;;;;9.77;4.18;;;14.80;49.10;;;;;;6262461;28;20033;-72
2020/12/17 13:38:23;;;;;;;9.55;4.28;;;14.90;48.40;;;;;;6264670;28;20029;-73
2020/12/17 13:41:24;;;;;;;10.85;4.10;;;14.90;48.20;;;;;;6242303;28;20048;-73
2020/12/17 13:44:26;;;;;;;8.32;3.65;;;14.80;48.30;;;;;;6260616;28;20080;-73
2020/12/17 13:47:30;;;;;;;11.00;5.25;;;14.70;48.40;;;;;;6258022;28;20034;-73
2020/12/17 13:50:31;;;;;;;18.05;7.63;;;14.70;48.80;;;;;;6263689;28;20366;-73
2020/12/17 13:53:32;;;;;;;24.60;11.48;;;14.70;48.90;;;;;;6258718;28;20090;-73
2020/12/17 13:56:33;;;;;;;15.95;5.90;;;14.70;49.00;;;;;;6260642;28;20045;-73
2020/12/17 13:59:34;;;;;;;13.93;6.30;;;14.70;48.90;;;;;;6258478;28;20195;-73
2020/12/17 14:02:35;;;;;;;20.10;5.15;;;14.70;48.80;;;;;;6247162;28;20136;-73
2020/12/17 14:05:36;;;;;;;10.48;3.83;;;14.70;48.80;;;;;;6255207;28;20033;-72
2020/12/17 14:08:39;;;;;;;13.45;4.50;;;14.80;48.60;;;;;;6242757;28;20091;-73
2020/12/17 14:11:40;;;;;;;10.80;4.57;;;14.80;48.50;;;;;;6259028;28;20025;-73
2020/12/17 14:14:42;;;;;;;7.10;3.30;;;14.70;48.40;;;;;;6262159;28;20434;-73
2020/12/17 14:17:43;;;;;;;9.57;3.22;;;14.80;48.60;;;;;;6258680;28;20052;-73
2020/12/17 14:20:45;;;;;;;10.35;3.15;;;14.70;48.80;;;;;;6244960;28;20048;-73
2020/12/17 14:23:46;;;;;;;10.05;3.92;;;14.70;49.10;;;;;;6249552;28;20077;-74
2020/12/17 14:26:47;;;;;;;8.25;3.47;;;14.60;49.10;;;;;;6240803;28;20116;-74
2020/12/17 14:29:47;;;;;;;13.52;3.53;;;14.50;49.20;;;;;;6242514;28;20049;-73
2020/12/17 14:32:49;;;;;;;9.55;3.47;;;14.50;49.30;;;;;;6257939;28;20191;-74
2020/12/17 14:35:50;;;;;;;8.07;3.47;;;14.50;49.20;;;;;;6246288;28;20095;-74
2020/12/17 14:38:52;;;;;;;9.63;4.03;;;14.40;49.30;;;;;;6260596;28;20102;-73
2020/12/17 14:41:57;;;;;;;8.73;3.35;;;14.40;49.30;;;;;;6260959;28;20037;-74
2020/12/17 14:44:58;;;;;;;7.93;3.17;;;14.40;49.30;;;;;;6250516;28;20107;-75
2020/12/17 14:47:58;;;;;;;11.50;3.72;;;14.40;49.30;;;;;;6247205;28;20402;-74
2020/12/17 14:51:00;;;;;;;12.10;3.15;;;14.40;49.40;;;;;;6261042;28;20026;-74
2020/12/17 14:54:02;;;;;;;9.52;3.28;;;14.40;49.40;;;;;;6238943;28;20051;-74
2020/12/17 14:57:06;;;;;;;13.35;4.72;;;14.40;49.40;;;;;;6264083;28;20033;-74
2020/12/17 15:00:08;;;;;;;6.43;3.25;;;14.40;49.50;;;;;;6256796;28;20034;-74
2020/12/17 15:03:09;;;;;;;13.32;3.80;;;14.50;49.40;;;;;;6254711;28;20044;-74
2020/12/17 15:06:10;;;;;;;8.10;3.80;;;14.50;49.50;;;;;;6255009;28;20042;-74
2020/12/17 15:09:11;;;;;;;7.97;3.17;;;14.60;49.60;;;;;;6257904;28;20025;-75
2020/12/17 15:12:12;;;;;;;8.68;3.60;;;14.60;49.60;;;;;;6259453;28;20124;-75
2020/12/17 15:15:13;;;;;;;7.50;3.67;;;14.50;49.70;;;;;;6244177;28;20034;-73
2020/12/17 15:18:17;;;;;;;5.82;3.38;;;14.50;49.70;;;;;;6240703;28;20036;-81
2020/12/17 15:21:20;;;;;;;10.10;3.75;;;14.50;49.80;;;;;;6256882;28;20079;-74
2020/12/17 15:24:21;;;;;;;15.30;6.38;;;14.50;49.80;;;;;;6259246;28;20030;-74
2020/12/17 15:27:22;;;;;;;24.55;9.10;;;14.50;49.90;;;;;;6258598;28;20037;-73
2020/12/17 15:30:23;;;;;;;14.98;4.80;;;14.60;50.00;;;;;;6257620;28;20531;-76
2020/12/17 15:33:25;;;;;;;9.93;4.07;;;14.50;50.10;;;;;;6242538;28;20029;-73
2020/12/17 15:36:26;;;;;;;7.00;4.07;;;14.60;50.20;;;;;;6243547;28;20071;-74
2020/12/17 15:39:27;;;;;;;11.40;4.28;;;14.50;50.30;;;;;;6261588;28;20413;-74
2020/12/17 15:42:28;;;;;;;8.90;3.70;;;14.50;50.40;;;;;;6238860;28;20041;-74